Time;durP1;ratioP1;P1;durP2;ratioP2;P2;SDS_P1;SDS_P2;PMS_P1;PMS_P2;Temp;Humidity;BMP_temperature;BMP_pressure;BME280_temperature;BME280_humidity;BME280_pressure;Samples;Min_cycle;Max_cycle;Signal;HPM_P1;HPM_P2
2022/03/01 00:01:42;;;;;;;4.43;2.87;;;;;;;0.77;90.01;97149.59;5026899;28;20221;-83
2022/03/01 00:04:09;;;;;;;6.30;2.63;;;;;;;0.77;89.82;97153.06;5013167;28;20202;-83
2022/03/01 00:06:36;;;;;;;4.10;2.97;;;;;;;0.80;89.32;97153.78;5006885;28;20218;-83
2022/03/01 00:09:04;;;;;;;4.30;2.60;;;;;;;0.78;89.50;97148.59;5009380;28;20209;-83
2022/03/01 00:11:32;;;;;;;4.27;2.20;;;;;;;0.75;90.28;97146.25;5017921;28;20284;-83
2022/03/01 00:14:01;;;;;;;2.93;2.20;;;;;;;0.70;90.47;97154.66;5009140;28;20227;-82
2022/03/01 00:16:28;;;;;;;4.77;2.17;;;;;;;0.64;91.07;97163.25;5009255;28;20290;-83
2022/03/01 00:18:55;;;;;;;4.40;2.70;;;;;;;0.60;91.75;97150.38;5012730;28;20209;-82
2022/03/01 00:21:22;;;;;;;3.97;2.90;;;;;;;0.57;91.88;97156.03;5009494;28;20214;-83
2022/03/01 00:23:49;;;;;;;3.37;2.23;;;;;;;0.61;91.79;97158.22;5011963;28;20236;-82
2022/03/01 00:26:17;;;;;;;3.10;2.33;;;;;;;0.61;91.96;97150.25;5045496;28;20233;-83
2022/03/01 00:28:44;;;;;;;3.97;2.43;;;;;;;0.60;91.65;97151.22;5030023;28;20210;-83
2022/03/01 00:31:13;;;;;;;3.60;2.60;;;;;;;0.62;91.81;97157.25;5030325;28;20206;-82
2022/03/01 00:33:41;;;;;;;4.53;2.33;;;;;;;0.56;91.78;97155.19;5030860;28;20248;-83
2022/03/01 00:36:08;;;;;;;2.80;2.30;;;;;;;0.49;92.20;97167.41;5029017;28;20226;-83
2022/03/01 00:38:35;;;;;;;3.77;2.57;;;;;;;0.37;91.49;97160.59;5047345;28;20223;-83
2022/03/01 00:41:02;;;;;;;3.93;2.20;;;;;;;0.38;92.29;97162.25;5034092;28;20206;-83
2022/03/01 00:43:29;;;;;;;3.00;2.13;;;;;;;0.42;92.29;97160.16;5026078;28;20200;-83
2022/03/01 00:45:56;;;;;;;2.60;2.03;;;;;;;0.46;92.20;97158.88;5029933;28;20231;-83
2022/03/01 00:48:25;;;;;;;4.00;2.37;;;;;;;0.51;91.95;97165.41;5021500;28;20210;-83
2022/03/01 00:50:52;;;;;;;3.13;2.07;;;;;;;0.50;92.01;97155.78;5039073;28;20196;-83
2022/03/01 00:53:20;;;;;;;3.40;1.97;;;;;;;0.49;92.04;97153.28;5030370;28;20202;-83
2022/03/01 00:55:47;;;;;;;3.27;2.30;;;;;;;0.48;91.99;97152.44;5045826;28;20249;-82
2022/03/01 00:58:15;;;;;;;4.07;2.47;;;;;;;0.45;91.81;97151.88;5027378;28;20208;-84
2022/03/01 01:00:42;;;;;;;3.43;2.70;;;;;;;0.36;92.30;97148.28;5029546;28;20255;-83
2022/03/01 01:03:09;;;;;;;4.53;2.43;;;;;;;0.35;92.85;97149.25;5029332;28;20243;-83
2022/03/01 01:05:38;;;;;;;3.13;2.37;;;;;;;0.32;93.09;97146.94;5024363;28;20229;-83
2022/03/01 01:08:05;;;;;;;3.27;2.83;;;;;;;0.30;93.15;97163.00;5045746;28;20218;-83
2022/03/01 01:10:32;;;;;;;4.40;2.30;;;;;;;0.26;94.11;97158.94;5029502;28;20206;-83
2022/03/01 01:13:00;;;;;;;2.83;2.20;;;;;;;0.28;94.70;97156.16;5028372;28;20256;-83
2022/03/01 01:15:27;;;;;;;3.20;2.53;;;;;;;0.29;94.28;97152.53;5026550;28;20454;-83
2022/03/01 01:17:54;;;;;;;3.67;2.10;;;;;;;0.30;94.02;97146.22;5046171;28;20211;-84
2022/03/01 01:20:21;;;;;;;4.93;2.40;;;;;;;0.22;94.29;97143.47;5028001;28;20205;-84
2022/03/01 01:22:50;;;;;;;4.23;2.20;;;;;;;0.17;93.41;97153.72;5028424;28;20216;-82
2022/03/01 01:25:19;;;;;;;3.67;2.03;;;;;;;0.09;95.16;97148.25;5016511;28;20223;-83
2022/03/01 01:27:47;;;;;;;2.87;2.20;;;;;;;0.04;95.03;97147.88;5008579;28;20312;-83
2022/03/01 01:30:16;;;;;;;3.80;2.20;;;;;;;0.06;95.31;97156.53;5022828;28;20215;-83
2022/03/01 01:32:44;;;;;;;2.73;2.00;;;;;;;-0.01;95.31;97146.50;5031353;28;20203;-83
2022/03/01 01:35:13;;;;;;;2.20;1.83;;;;;;;-0.01;94.33;97150.97;5009156;28;20298;-83
2022/03/01 01:37:41;;;;;;;4.23;2.00;;;;;;;-0.06;93.13;97146.09;5008305;28;20253;-83
2022/03/01 01:40:13;;;;;;;4.03;2.00;;;;;;;0.03;93.44;97152.34;5027828;28;20554;-83
2022/03/01 01:42:40;;;;;;;2.83;1.73;;;;;;;0.11;93.16;97154.28;5004722;28;20238;-83
2022/03/01 01:45:08;;;;;;;2.93;1.87;;;;;;;0.15;92.97;97150.34;5026979;28;20280;-83
2022/03/01 01:47:35;;;;;;;3.13;1.80;;;;;;;0.18;93.30;97150.03;5025037;28;20226;-84
2022/03/01 01:50:04;;;;;;;3.10;1.77;;;;;;;0.16;93.59;97150.22;5012752;28;20199;-83
2022/03/01 01:52:31;;;;;;;2.20;1.80;;;;;;;0.16;93.38;97157.34;5008640;28;20211;-82
2022/03/01 01:54:58;;;;;;;2.27;1.90;;;;;;;0.12;92.31;97153.28;5014597;28;20203;-83
2022/03/01 01:57:27;;;;;;;4.67;2.30;;;;;;;0.02;94.20;97147.19;5013497;28;20234;-83
2022/03/01 01:59:56;;;;;;;3.67;2.07;;;;;;;0.00;93.38;97148.16;5024843;28;20208;-83
2022/03/01 02:02:25;;;;;;;3.27;2.03;;;;;;;0.03;93.90;97143.53;5024596;28;20248;-83
2022/03/01 02:04:53;;;;;;;2.50;1.90;;;;;;;0.03;93.47;97131.09;5000522;28;20202;-83
2022/03/01 02:07:20;;;;;;;2.57;1.97;;;;;;;0.04;93.04;97131.94;5010022;28;20234;-83
2022/03/01 02:09:47;;;;;;;2.60;1.90;;;;;;;-0.08;92.80;97131.28;5009975;28;20217;-83
2022/03/01 02:12:14;;;;;;;3.13;2.23;;;;;;;-0.20;93.06;97129.81;5011811;28;20195;-82
2022/03/01 02:14:44;;;;;;;3.70;2.23;;;;;;;-0.20;93.48;97133.28;5027955;28;20211;-83
2022/03/01 02:17:12;;;;;;;2.40;2.03;;;;;;;-0.32;94.86;97129.13;5008023;28;20340;-83
2022/03/01 02:19:47;;;;;;;3.83;2.13;;;;;;;-0.30;95.61;97128.97;5008978;28;20499;-83
2022/03/01 02:22:16;;;;;;;2.50;2.00;;;;;;;-0.26;95.52;97130.38;5023759;28;20225;-82
2022/03/01 02:24:43;;;;;;;3.60;2.27;;;;;;;-0.24;95.92;97134.53;5019850;28;20304;-83
2022/03/01 02:27:10;;;;;;;4.17;2.40;;;;;;;-0.33;95.71;97126.59;5044252;28;20280;-82
2022/03/01 02:29:37;;;;;;;2.43;1.90;;;;;;;-0.34;94.86;97132.91;5026946;28;20291;-83
2022/03/01 02:32:07;;;;;;;2.53;1.70;;;;;;;-0.40;96.33;97129.84;5020734;28;20203;-83
2022/03/01 02:34:35;;;;;;;2.77;1.97;;;;;;;-0.40;96.36;97134.31;5041741;28;20214;-83
2022/03/01 02:37:02;;;;;;;2.63;2.10;;;;;;;-0.39;96.38;97136.81;5032641;28;20237;-83
2022/03/01 02:39:30;;;;;;;3.63;2.40;;;;;;;-0.38;96.57;97145.63;5031612;28;20202;-83
2022/03/01 02:41:57;;;;;;;4.20;2.40;;;;;;;-0.38;96.63;97148.28;5030231;28;20294;-82
2022/03/01 02:44:24;;;;;;;2.77;2.40;;;;;;;-0.44;96.33;97148.84;5032904;28;20202;-83
2022/03/01 02:46:51;;;;;;;4.20;2.40;;;;;;;-0.49;96.60;97146.63;5031629;28;20218;-83
2022/03/01 02:49:18;;;;;;;3.37;2.17;;;;;;;-0.49;97.41;97156.38;5033252;28;20206;-83
2022/03/01 02:51:46;;;;;;;2.90;2.40;;;;;;;-0.47;97.80;97155.28;5026756;28;20225;-83
2022/03/01 02:54:13;;;;;;;2.87;2.03;;;;;;;-0.51;98.05;97147.75;5028036;28;20203;-83
2022/03/01 02:56:41;;;;;;;2.90;2.10;;;;;;;-0.54;97.56;97148.03;5047815;28;20204;-83
2022/03/01 02:59:08;;;;;;;3.27;2.27;;;;;;;-0.53;98.55;97145.25;5027303;28;20269;-83
2022/03/01 03:01:36;;;;;;;2.60;2.07;;;;;;;-0.53;97.97;97147.06;5031234;28;20267;-83
2022/03/01 03:04:03;;;;;;;2.10;1.70;;;;;;;-0.52;98.70;97156.69;5031994;28;20202;-83
2022/03/01 03:06:32;;;;;;;2.93;2.23;;;;;;;-0.59;98.63;97145.78;5022259;28;20241;-83
2022/03/01 03:08:59;;;;;;;2.63;2.17;;;;;;;-0.60;98.41;97156.56;5038365;28;20229;-83
2022/03/01 03:11:26;;;;;;;2.30;1.90;;;;;;;-0.63;98.56;97162.97;5025565;28;20222;-83
2022/03/01 03:13:54;;;;;;;2.67;1.90;;;;;;;-0.62;97.64;97161.16;5047267;28;20210;-83
2022/03/01 03:16:21;;;;;;;2.70;1.90;;;;;;;-0.68;96.56;97172.34;5029841;28;20206;-83
2022/03/01 03:18:48;;;;;;;2.03;1.40;;;;;;;-0.71;96.69;97183.22;5030037;28;20214;-82
2022/03/01 03:21:15;;;;;;;3.30;1.67;;;;;;;-0.73;96.15;97174.56;5029660;28;20258;-82
2022/03/01 03:23:42;;;;;;;2.10;1.50;;;;;;;-0.76;96.01;97176.50;5025783;28;20275;-83
2022/03/01 03:26:10;;;;;;;4.07;2.00;;;;;;;-0.77;95.83;97177.47;5015173;28;20215;-83
2022/03/01 03:28:37;;;;;;;2.23;1.80;;;;;;;-0.80;96.71;97185.75;5002995;28;20273;-82
2022/03/01 03:31:06;;;;;;;2.10;1.60;;;;;;;-0.79;97.31;97183.94;5011601;28;20210;-83
2022/03/01 03:33:33;;;;;;;2.27;1.70;;;;;;;-0.76;97.11;97194.22;5011800;28;20321;-83
2022/03/01 03:36:00;;;;;;;2.43;1.93;;;;;;;-0.84;96.52;97191.44;5023742;28;20207;-83
2022/03/01 03:38:28;;;;;;;2.20;1.80;;;;;;;-0.87;97.34;97197.88;5011515;28;20199;-82
2022/03/01 03:40:55;;;;;;;2.10;1.57;;;;;;;-0.84;97.13;97194.09;5011382;28;20301;-83
2022/03/01 03:43:22;;;;;;;2.60;1.50;;;;;;;-0.88;97.46;97182.09;5012525;28;20198;-83
2022/03/01 03:45:50;;;;;;;2.83;1.63;;;;;;;-0.82;96.72;97182.38;5018909;28;20217;-84
2022/03/01 03:48:18;;;;;;;2.27;1.73;;;;;;;-0.81;96.32;97189.38;5007741;28;20306;-83
2022/03/01 03:50:45;;;;;;;5.20;2.13;;;;;;;-0.88;97.29;97176.81;5011117;28;20212;-83
2022/03/01 03:53:12;;;;;;;4.60;2.27;;;;;;;-0.95;98.22;97173.03;5029241;28;20203;-83
2022/03/01 03:55:39;;;;;;;3.30;2.37;;;;;;;-0.97;98.93;97177.63;5011782;28;20252;-83
2022/03/01 03:58:06;;;;;;;2.53;2.00;;;;;;;-1.07;99.49;97172.31;5010962;28;20206;-83
2022/03/01 04:00:34;;;;;;;2.20;1.90;;;;;;;-1.13;99.68;97172.03;5010694;28;20202;-82
2022/03/01 04:03:01;;;;;;;2.87;2.43;;;;;;;-1.11;99.64;97175.41;5012410;28;20265;-83
2022/03/01 04:05:30;;;;;;;2.93;2.43;;;;;;;-1.06;99.51;97165.22;5005912;28;20215;-83
2022/03/01 04:07:57;;;;;;;4.30;2.70;;;;;;;-1.02;98.87;97172.72;5011269;28;20243;-83
2022/03/01 04:10:24;;;;;;;2.87;1.90;;;;;;;-1.02;98.21;97174.56;5012207;28;20235;-83
2022/03/01 04:12:51;;;;;;;2.77;1.77;;;;;;;-1.01;98.37;97177.06;5009336;28;20202;-82
2022/03/01 04:15:18;;;;;;;4.27;2.20;;;;;;;-1.02;97.19;97178.03;5011409;28;20225;-83
2022/03/01 04:17:45;;;;;;;2.73;2.20;;;;;;;-1.00;96.89;97178.75;5009111;28;20209;-83
2022/03/01 04:20:14;;;;;;;2.93;1.73;;;;;;;-0.99;96.42;97171.63;5008091;28;20210;-83
2022/03/01 04:22:43;;;;;;;1.57;1.30;;;;;;;-0.95;96.04;97175.69;5010887;28;20237;-83
2022/03/01 04:25:10;;;;;;;3.80;1.70;;;;;;;-0.97;95.44;97167.88;5011255;28;20257;-83
2022/03/01 04:27:38;;;;;;;3.30;1.57;;;;;;;-0.99;95.58;97172.47;5025795;28;20234;-83
2022/03/01 04:30:06;;;;;;;2.03;1.60;;;;;;;-1.04;94.95;97177.34;5027060;28;20203;-83
2022/03/01 04:32:34;;;;;;;4.23;1.97;;;;;;;-1.11;95.75;97167.44;5009312;28;20210;-83
2022/03/01 04:35:02;;;;;;;3.17;1.87;;;;;;;-1.12;96.95;97171.91;5010586;28;20214;-83
2022/03/01 04:37:29;;;;;;;2.87;1.67;;;;;;;-1.16;96.77;97175.81;5002398;28;20229;-83
2022/03/01 04:39:57;;;;;;;3.93;1.90;;;;;;;-1.24;97.17;97157.94;5005992;28;20195;-83
2022/03/01 04:42:24;;;;;;;3.43;1.80;;;;;;;-1.19;96.87;97162.81;5027844;28;20221;-83
2022/03/01 04:44:52;;;;;;;1.87;1.53;;;;;;;-1.18;97.08;97165.31;5010728;28;20207;-83
2022/03/01 04:47:19;;;;;;;1.53;1.40;;;;;;;-1.15;96.67;97169.53;5010613;28;20554;-83
2022/03/01 04:49:46;;;;;;;2.90;1.67;;;;;;;-1.13;97.00;97175.53;5022955;28;20298;-83
2022/03/01 04:52:13;;;;;;;2.13;1.57;;;;;;;-1.01;96.70;97186.81;5003363;28;20209;-83
2022/03/01 04:54:40;;;;;;;6.10;1.80;;;;;;;-1.02;95.62;97178.03;5007216;28;20268;-83
2022/03/01 04:57:08;;;;;;;2.63;1.90;;;;;;;-1.06;96.31;97174.00;5007782;28;20235;-83
2022/03/01 04:59:35;;;;;;;1.93;1.70;;;;;;;-1.01;96.33;97178.88;5007845;28;20218;-83
2022/03/01 05:02:03;;;;;;;1.83;1.63;;;;;;;-1.11;95.93;97165.63;5025876;28;20250;-84
2022/03/01 05:04:30;;;;;;;3.00;1.80;;;;;;;-1.15;95.79;97167.72;5005190;28;20267;-82
2022/03/01 05:06:57;;;;;;;2.47;1.90;;;;;;;-1.19;96.60;97162.81;5022050;28;20247;-83
2022/03/01 05:09:25;;;;;;;3.93;2.37;;;;;;;-1.21;96.86;97176.22;5025515;28;20276;-83
2022/03/01 05:11:52;;;;;;;3.27;1.60;;;;;;;-1.21;97.37;97175.38;5008378;28;20219;-83
2022/03/01 05:14:21;;;;;;;3.00;1.67;;;;;;;-1.19;97.44;97178.72;5000431;28;20266;-83
2022/03/01 05:16:48;;;;;;;3.20;1.90;;;;;;;-1.23;97.58;97166.72;5007782;28;20207;-83
2022/03/01 05:19:16;;;;;;;3.07;2.07;;;;;;;-1.22;97.68;97179.00;5007459;28;20237;-82
2022/03/01 05:21:43;;;;;;;4.67;3.07;;;;;;;-1.24;97.55;97175.66;5008561;28;20206;-82
2022/03/01 05:24:10;;;;;;;4.77;2.90;;;;;;;-1.26;98.20;97173.13;5014483;28;20242;-83
2022/03/01 05:26:38;;;;;;;4.93;2.00;;;;;;;-1.25;97.34;97179.28;5028845;28;20212;-83
2022/03/01 05:29:07;;;;;;;2.40;1.93;;;;;;;-1.30;97.87;97176.22;5046862;28;20209;-83
2022/03/01 05:31:35;;;;;;;2.63;1.93;;;;;;;-1.37;98.50;97175.91;5029201;28;20293;-83
2022/03/01 05:34:02;;;;;;;4.10;1.83;;;;;;;-1.29;98.70;97177.88;5042430;28;20203;-83
2022/03/01 05:36:29;;;;;;;4.87;2.10;;;;;;;-1.30;98.24;97178.84;5043340;28;20210;-82
2022/03/01 05:38:56;;;;;;;4.37;2.07;;;;;;;-1.30;97.48;97181.50;5027022;28;20214;-82
2022/03/01 05:41:24;;;;;;;4.17;1.70;;;;;;;-1.40;97.67;97175.34;5028719;28;20308;-83
2022/03/01 05:43:51;;;;;;;2.53;2.00;;;;;;;-1.41;98.17;97177.16;5044460;28;20304;-83
2022/03/01 05:46:18;;;;;;;2.83;1.63;;;;;;;-1.41;98.01;97168.38;5028788;28;20210;-83
2022/03/01 05:48:47;;;;;;;2.87;2.43;;;;;;;-1.41;97.21;97163.06;5030085;28;20283;-83
2022/03/01 05:51:15;;;;;;;4.67;2.07;;;;;;;-1.36;97.47;97171.47;5028441;28;20233;-83
2022/03/01 05:53:42;;;;;;;2.60;1.93;;;;;;;-1.44;98.01;97165.97;5026391;28;20225;-83
2022/03/01 05:56:09;;;;;;;8.17;3.07;;;;;;;-1.57;98.97;97164.44;5040209;28;20206;-83
2022/03/01 05:58:36;;;;;;;7.10;3.50;;;;;;;-1.53;99.89;97167.63;5020945;28;20288;-82
2022/03/01 06:01:04;;;;;;;4.73;2.23;;;;;;;-1.65;99.98;97161.63;5028345;28;20225;-83
2022/03/01 06:03:31;;;;;;;3.50;2.50;;;;;;;-1.64;100.00;97159.81;5029202;28;20208;-83
2022/03/01 06:05:59;;;;;;;2.87;1.97;;;;;;;-1.54;100.00;97169.47;5024532;28;20215;-83
2022/03/01 06:08:26;;;;;;;2.13;1.60;;;;;;;-1.58;99.67;97157.47;5029755;28;20230;-83
2022/03/01 06:10:54;;;;;;;2.67;1.70;;;;;;;-1.54;99.49;97158.88;5024074;28;20206;-83
2022/03/01 06:13:21;;;;;;;2.37;1.70;;;;;;;-1.50;98.99;97163.88;5026717;28;20202;-83
2022/03/01 06:15:48;;;;;;;2.60;1.63;;;;;;;-1.47;99.17;97156.50;5033504;28;20198;-83
2022/03/01 06:18:16;;;;;;;4.43;2.27;;;;;;;-1.46;98.44;97168.78;5026608;28;20211;-82
2022/03/01 06:20:44;;;;;;;2.70;2.20;;;;;;;-1.42;97.79;97169.34;5027794;28;20194;-83
2022/03/01 06:23:13;;;;;;;4.20;2.10;;;;;;;-1.39;98.11;97171.72;5049426;28;20229;-83
2022/03/01 06:25:42;;;;;;;4.07;2.40;;;;;;;-1.45;97.05;97162.53;5042221;28;20344;-82
2022/03/01 06:28:10;;;;;;;5.07;2.13;;;;;;;-1.44;97.54;97165.97;5031847;28;20221;-82
2022/03/01 06:30:37;;;;;;;1.97;1.77;;;;;;;-1.37;98.02;97156.53;5025753;28;20209;-83
2022/03/01 06:33:05;;;;;;;2.00;1.50;;;;;;;-1.33;96.36;97166.72;5031636;28;20198;-82
2022/03/01 06:35:32;;;;;;;2.07;1.67;;;;;;;-1.35;96.30;97163.34;5050267;28;20205;-83
2022/03/01 06:37:59;;;;;;;3.27;2.00;;;;;;;-1.26;97.61;97161.69;5032958;28;20209;-82
2022/03/01 06:40:28;;;;;;;2.47;2.10;;;;;;;-1.25;98.23;97158.06;5031848;28;20362;-83
2022/03/01 06:42:56;;;;;;;5.27;3.17;;;;;;;-1.13;97.89;97172.88;5033614;28;20200;-82
2022/03/01 06:45:23;;;;;;;3.87;2.70;;;;;;;-1.19;96.78;97170.75;5029885;28;20206;-83
2022/03/01 06:47:50;;;;;;;3.43;2.43;;;;;;;-1.21;97.04;97164.78;5032532;28;20218;-82
2022/03/01 06:50:17;;;;;;;4.43;2.57;;;;;;;-1.20;97.42;97175.25;5031447;28;20206;-82
2022/03/01 06:52:44;;;;;;;6.00;2.57;;;;;;;-1.15;97.99;97177.47;5031325;28;20343;-83
2022/03/01 06:55:13;;;;;;;4.50;3.10;;;;;;;-1.14;97.38;97181.81;5034766;28;20195;-83
2022/03/01 06:57:42;;;;;;;4.40;3.07;;;;;;;-1.15;97.46;97185.44;5020526;28;20210;-83
2022/03/01 07:00:11;;;;;;;5.13;2.87;;;;;;;-1.24;96.52;97178.31;5028928;28;20210;-83
2022/03/01 07:02:39;;;;;;;3.23;2.80;;;;;;;-1.29;97.53;97178.72;5048300;28;20252;-82
2022/03/01 07:05:08;;;;;;;4.23;2.47;;;;;;;-1.34;97.68;97175.63;5032558;28;20268;-83
2022/03/01 07:07:35;;;;;;;3.60;1.90;;;;;;;-1.33;96.94;97181.75;5032093;28;20232;-83
2022/03/01 07:10:03;;;;;;;5.60;3.23;;;;;;;-1.38;97.23;97184.00;5032838;28;20199;-82
2022/03/01 07:12:30;;;;;;;4.97;2.80;;;;;;;-1.40;97.54;97180.63;5050195;28;20230;-83
2022/03/01 07:14:59;;;;;;;4.30;2.70;;;;;;;-1.44;98.16;97184.53;5028667;28;20225;-82
2022/03/01 07:17:26;;;;;;;3.23;2.00;;;;;;;-1.43;98.33;97179.09;5032809;28;20206;-83
2022/03/01 07:19:53;;;;;;;3.63;2.10;;;;;;;-1.44;97.46;97180.06;5029666;28;20214;-82
2022/03/01 07:22:21;;;;;;;3.47;2.07;;;;;;;-1.36;96.97;97187.34;5028950;28;20210;-82
2022/03/01 07:24:51;;;;;;;3.87;2.57;;;;;;;-1.42;97.87;97174.63;5044990;28;20311;-82
2022/03/01 07:27:18;;;;;;;6.63;3.27;;;;;;;-1.38;98.16;97186.66;5027064;28;20214;-82
2022/03/01 07:29:45;;;;;;;5.47;3.27;;;;;;;-1.34;98.75;97185.38;5027937;28;20199;-82
2022/03/01 07:32:14;;;;;;;3.40;2.67;;;;;;;-1.37;98.23;97175.09;5044317;28;20229;-82
2022/03/01 07:34:42;;;;;;;4.47;3.40;;;;;;;-1.31;98.30;97183.31;5018829;28;20203;-82
2022/03/01 07:37:10;;;;;;;6.10;3.80;;;;;;;-1.35;96.66;97173.09;5044635;28;20203;-82
2022/03/01 07:39:37;;;;;;;4.43;2.70;;;;;;;-1.28;96.78;97185.69;5028369;28;20195;-82
2022/03/01 07:42:05;;;;;;;5.33;4.20;;;;;;;-1.33;95.63;97182.59;5025577;28;20217;-83
2022/03/01 07:44:36;;;;;;;2.83;2.30;;;;;;;-1.30;95.61;97165.59;5026645;28;20207;-83
2022/03/01 07:47:05;;;;;;;4.27;3.57;;;;;;;-1.27;95.73;97175.91;5028245;28;20518;-81
2022/03/01 07:49:34;;;;;;;8.13;3.83;;;;;;;-1.27;95.78;97171.44;5027492;28;20488;-82
2022/03/01 07:52:02;;;;;;;9.07;3.43;;;;;;;-1.22;96.39;97174.53;5025180;28;20207;-81
2022/03/01 07:54:29;;;;;;;7.17;4.03;;;;;;;-1.17;96.64;97174.13;5022961;28;20499;-81
2022/03/01 07:56:56;;;;;;;8.43;5.20;;;;;;;-1.16;97.11;97173.16;5026581;28;20214;-82
2022/03/01 07:59:23;;;;;;;6.93;4.30;;;;;;;-1.21;96.71;97170.09;5036776;28;20206;-81
2022/03/01 08:01:50;;;;;;;8.10;4.70;;;;;;;-1.21;98.24;97175.38;5023475;28;20230;-82
2022/03/01 08:04:17;;;;;;;6.60;3.60;;;;;;;-1.20;98.45;97175.25;5028868;28;20219;-81
2022/03/01 08:06:46;;;;;;;14.17;8.57;;;;;;;-1.20;97.60;97169.13;5021319;28;20223;-82
2022/03/01 08:09:13;;;;;;;8.10;3.30;;;;;;;-1.18;97.03;97173.28;5025042;28;20245;-82
2022/03/01 08:11:40;;;;;;;6.73;3.53;;;;;;;-1.16;96.75;97171.34;5027529;28;20308;-82
2022/03/01 08:14:10;;;;;;;19.93;3.90;;;;;;;-1.15;97.50;97169.53;5027838;28;20209;-81
2022/03/01 08:16:37;;;;;;;7.40;3.33;;;;;;;-1.12;96.48;97163.97;5026560;28;20222;-82
2022/03/01 08:19:04;;;;;;;12.07;3.03;;;;;;;-1.07;96.75;97164.38;5026916;28;20199;-82
2022/03/01 08:21:31;;;;;;;6.57;3.47;;;;;;;-1.11;97.11;97163.00;5027378;28;20233;-82
2022/03/01 08:24:00;;;;;;;5.67;3.83;;;;;;;-1.06;97.26;97174.00;5019303;28;20238;-82
2022/03/01 08:26:27;;;;;;;8.97;3.53;;;;;;;-1.03;97.94;97170.25;5002741;28;20219;-82
2022/03/01 08:28:54;;;;;;;17.27;4.03;;;;;;;-1.01;96.59;97171.75;5008167;28;20238;-82
2022/03/01 08:31:22;;;;;;;8.37;3.80;;;;;;;-1.08;97.11;97157.38;5017001;28;20301;-82
2022/03/01 08:33:49;;;;;;;11.27;3.77;;;;;;;-1.02;97.17;97159.47;5028738;28;20576;-81
2022/03/01 08:36:16;;;;;;;8.20;3.20;;;;;;;-1.04;97.98;97145.56;5027184;28;20209;-84
2022/03/01 08:39:05;;;;;;;16.80;5.97;;;;;;;-0.97;97.47;97146.66;5023817;28;20199;-81
2022/03/01 08:41:33;;;;;;;9.17;3.00;;;;;;;-0.90;96.93;97142.47;5004245;28;20199;-81
2022/03/01 08:44:00;;;;;;;4.03;2.17;;;;;;;-0.85;94.42;97144.72;5006149;28;20210;-82
2022/03/01 08:46:51;;;;;;;2.53;1.80;;;;;;;-0.71;92.42;97144.28;5008722;28;20274;-81
2022/03/01 08:49:18;;;;;;;6.27;2.00;;;;;;;-0.62;93.17;97142.59;4994759;28;20321;-80
2022/03/01 08:51:45;;;;;;;2.03;1.67;;;;;;;-0.55;93.06;97128.63;5010116;28;20195;-81
2022/03/01 08:54:13;;;;;;;4.70;1.60;;;;;;;-0.45;90.74;97132.09;5012349;28;20235;-80
2022/03/01 08:56:40;;;;;;;2.30;1.33;;;;;;;-0.28;88.07;97127.88;5021237;28;20210;-80
2022/03/01 08:59:07;;;;;;;2.40;1.63;;;;;;;-0.18;86.43;97126.03;5010164;28;20206;-80
2022/03/01 09:01:34;;;;;;;2.43;1.70;;;;;;;0.03;85.88;97120.47;5030770;28;20554;-79
2022/03/01 09:04:02;;;;;;;1.77;1.50;;;;;;;0.14;83.81;97127.44;5016287;28;20217;-80
2022/03/01 09:06:29;;;;;;;2.67;1.87;;;;;;;0.30;81.82;97117.84;5013173;28;20284;-80
2022/03/01 09:08:56;;;;;;;2.87;1.90;;;;;;;0.46;79.45;97117.19;5009899;28;20268;-81
2022/03/01 09:11:25;;;;;;;2.90;1.80;;;;;;;0.66;77.59;97126.72;5009069;28;20215;-81
2022/03/01 09:13:52;;;;;;;5.93;2.07;;;;;;;0.85;77.69;97122.28;5009159;28;20224;-81
2022/03/01 09:16:19;;;;;;;1.83;1.60;;;;;;;1.01;76.78;97133.06;5005242;28;20401;-80
2022/03/01 09:18:46;;;;;;;7.20;2.50;;;;;;;1.27;80.98;97120.66;5008104;28;20203;-81
2022/03/01 09:21:14;;;;;;;2.00;1.67;;;;;;;1.57;76.12;97113.22;5010117;28;20265;-80
2022/03/01 09:23:41;;;;;;;6.03;1.90;;;;;;;1.77;72.74;97123.53;5016684;28;20237;-81
2022/03/01 09:26:08;;;;;;;2.60;1.83;;;;;;;1.92;69.86;97118.44;5019677;28;20276;-81
2022/03/01 09:28:37;;;;;;;5.07;1.90;;;;;;;2.02;68.58;97113.84;5027009;28;20229;-78
2022/03/01 09:31:04;;;;;;;2.70;1.97;;;;;;;2.08;67.45;97102.56;5024753;28;20210;-78
2022/03/01 09:33:31;;;;;;;5.77;2.33;;;;;;;2.24;65.25;97107.97;5025152;28;20194;-81
2022/03/01 09:36:01;;;;;;;2.87;1.77;;;;;;;2.38;63.69;97114.53;5030025;28;20226;-80
2022/03/01 09:38:28;;;;;;;3.73;2.13;;;;;;;2.47;62.46;97108.19;5030237;28;20305;-81
2022/03/01 09:40:55;;;;;;;2.67;1.93;;;;;;;2.57;62.79;97102.75;5027933;28;20204;-81
2022/03/01 09:43:22;;;;;;;3.83;2.33;;;;;;;2.67;59.98;97100.78;5044124;28;20240;-81
2022/03/01 09:45:50;;;;;;;5.03;2.20;;;;;;;2.79;59.06;97103.97;5026943;28;20210;-80
2022/03/01 09:48:17;;;;;;;2.23;2.03;;;;;;;2.84;58.83;97096.31;5045744;28;20217;-81
2022/03/01 09:50:47;;;;;;;5.17;2.70;;;;;;;2.96;59.27;97097.69;5030706;28;20206;-80
2022/03/01 09:53:14;;;;;;;5.10;2.90;;;;;;;3.02;57.84;97086.34;5028975;28;20212;-80
2022/03/01 09:55:41;;;;;;;7.63;2.77;;;;;;;3.10;58.88;97089.00;5024557;28;20221;-80
2022/03/01 09:58:09;;;;;;;7.93;2.97;;;;;;;3.29;59.29;97093.19;5042869;28;20203;-81
2022/03/01 10:00:36;;;;;;;13.10;3.30;;;;;;;3.43;60.17;97089.84;5042829;28;20206;-81
2022/03/01 10:03:04;;;;;;;5.60;2.70;;;;;;;3.58;57.75;97088.16;5045137;28;20206;-80
2022/03/01 10:05:36;;;;;;;3.83;2.30;;;;;;;3.65;56.27;97080.34;5025187;28;20296;-80
2022/03/01 10:08:08;;;;;;;32.30;5.30;;;;;;;3.93;56.29;97081.59;5015098;28;20209;-81
2022/03/01 10:10:41;;;;;;;3.30;2.23;;;;;;;4.05;54.49;97080.22;5028834;28;20244;-81
2022/03/01 10:13:08;;;;;;;6.77;3.10;;;;;;;4.19;55.37;97071.50;5029523;28;20306;-81
2022/03/01 10:15:35;;;;;;;10.63;2.80;;;;;;;4.35;53.05;97073.25;5028427;28;20198;-81
2022/03/01 10:18:12;;;;;;;4.47;2.37;;;;;;;4.43;54.71;97075.06;5044469;28;20198;-80
2022/03/01 10:20:41;;;;;;;3.97;2.60;;;;;;;4.59;55.24;97079.53;5033656;28;20218;-82
2022/03/01 10:23:11;;;;;;;3.20;2.60;;;;;;;4.56;54.51;97068.16;5025907;28;20218;-81
2022/03/01 10:25:39;;;;;;;6.43;2.43;;;;;;;4.81;54.48;97081.38;5044216;28;20242;-81
2022/03/01 10:28:08;;;;;;;5.97;2.73;;;;;;;4.93;53.70;97064.75;5045221;28;20304;-80
2022/03/01 10:30:38;;;;;;;3.77;2.60;;;;;;;5.06;53.81;97060.66;5028751;28;20284;-80
2022/03/01 10:33:07;;;;;;;7.37;2.80;;;;;;;5.19;53.59;97064.38;5045893;28;20217;-81
2022/03/01 10:35:36;;;;;;;4.53;2.37;;;;;;;5.38;53.71;97064.91;5026655;28;20244;-81
2022/03/01 10:38:05;;;;;;;4.13;2.53;;;;;;;5.56;53.26;97060.06;5027868;28;20190;-80
2022/03/01 10:40:33;;;;;;;5.07;2.90;;;;;;;5.77;51.17;97052.16;5028942;28;20210;-81
2022/03/01 10:43:09;;;;;;;12.10;2.67;;;;;;;5.98;51.03;97063.03;5024974;28;20207;-81
2022/03/01 10:45:40;;;;;;;3.53;2.63;;;;;;;6.06;51.56;97060.25;5025156;28;20201;-82
2022/03/01 10:48:10;;;;;;;6.30;2.70;;;;;;;6.18;50.78;97049.91;5028665;28;20248;-80
2022/03/01 10:50:40;;;;;;;3.87;2.37;;;;;;;6.33;52.96;97058.75;5028633;28;20324;-81
2022/03/01 10:53:07;;;;;;;3.83;2.90;;;;;;;6.54;54.20;97060.69;5029332;28;20206;-81
2022/03/01 10:55:38;;;;;;;3.30;2.50;;;;;;;6.78;55.05;97060.38;5048413;28;20221;-82
2022/03/01 10:58:08;;;;;;;3.47;2.67;;;;;;;6.90;53.44;97062.53;5031953;28;20220;-82
2022/03/01 11:00:37;;;;;;;6.17;2.97;;;;;;;6.93;52.95;97057.63;5045413;28;20237;-81
2022/03/01 11:03:05;;;;;;;7.27;2.63;;;;;;;7.00;52.67;97055.84;5047673;28;20221;-82
2022/03/01 11:05:33;;;;;;;4.43;2.90;;;;;;;7.23;52.97;97063.69;5032440;28;20256;-81
2022/03/01 11:08:03;;;;;;;4.23;2.77;;;;;;;7.28;51.62;97058.59;5048063;28;20261;-82
2022/03/01 11:10:32;;;;;;;4.23;2.80;;;;;;;7.32;50.86;97070.63;5032384;28;20226;-82
2022/03/01 11:13:01;;;;;;;7.50;3.00;;;;;;;7.43;49.55;97070.09;5031660;28;20325;-82
2022/03/01 11:15:43;;;;;;;6.60;3.03;;;;;;;7.40;49.38;97064.31;5030654;28;20217;-82
2022/03/01 11:18:23;;;;;;;4.33;3.10;;;;;;;7.40;49.18;97061.63;5031156;28;20206;-82
2022/03/01 11:20:51;;;;;;;4.90;2.83;;;;;;;7.60;48.41;97066.13;5041234;28;20202;-82
2022/03/01 11:23:24;;;;;;;4.93;2.70;;;;;;;7.79;48.02;97058.41;5027610;28;20240;-82
2022/03/01 11:25:53;;;;;;;3.67;2.73;;;;;;;7.99;48.84;97060.19;5030496;28;20329;-81
2022/03/01 11:28:30;;;;;;;4.20;3.30;;;;;;;8.01;48.10;97056.50;5048109;28;20313;-82
2022/03/01 11:30:57;;;;;;;4.47;3.37;;;;;;;8.25;47.89;97054.16;5031352;28;20218;-82
2022/03/01 11:33:27;;;;;;;4.13;3.23;;;;;;;8.29;47.60;97046.53;5031631;28;20206;-82
2022/03/01 11:35:57;;;;;;;6.60;4.20;;;;;;;8.60;47.35;97056.84;5031703;28;20213;-82
2022/03/01 11:38:29;;;;;;;5.37;3.43;;;;;;;8.73;47.39;97059.59;5030547;28;20242;-82
2022/03/01 11:41:09;;;;;;;7.37;3.37;;;;;;;8.80;47.21;97055.06;5030743;28;20218;-82